Time;durP1;ratioP1;P1;durP2;ratioP2;P2;SDS_P1;SDS_P2;PMS_P1;PMS_P2;Temp;Humidity;BMP_temperature;BMP_pressure;BME280_temperature;BME280_humidity;BME280_pressure;Samples;Min_cycle;Max_cycle;Signal;HPM_P1;HPM_P2
2023/06/08 00:02:14;;;;;;;21.30;12.15;;;;;;;;;;5035482;28;20056;-61
2023/06/08 00:04:40;;;;;;;26.77;13.60;;;;;;;;;;5036920;28;20029;-61
2023/06/08 00:07:10;;;;;;;25.65;12.90;;;;;;;;;;5038397;28;20026;-63
2023/06/08 00:09:37;;;;;;;25.20;12.85;;;;;;;;;;5038743;28;20545;-64
2023/06/08 00:12:03;;;;;;;27.60;13.23;;;;;;;;;;5038076;28;20022;-63
2023/06/08 00:14:29;;;;;;;25.52;12.98;;;;;;;;;;5038347;28;20029;-63
2023/06/08 00:16:55;;;;;;;28.83;12.88;;;;;;;;;;5039894;28;20029;-63
2023/06/08 00:19:22;;;;;;;27.77;12.80;;;;;;;;;;5037999;28;20045;-60
2023/06/08 00:21:49;;;;;;;24.83;13.35;;;;;;;;;;5037652;28;20049;-63
2023/06/08 00:24:20;;;;;;;24.80;12.55;;;;;;;;;;5038437;28;20022;-63
2023/06/08 00:26:46;;;;;;;18.50;12.18;;;;;;;;;;5038237;28;20113;-61
2023/06/08 00:29:12;;;;;;;22.92;13.07;;;;;;;;;;5037545;28;20060;-62
2023/06/08 00:31:38;;;;;;;22.65;12.68;;;;;;;;;;5037871;28;20033;-62
2023/06/08 00:34:04;;;;;;;24.15;12.82;;;;;;;;;;5037033;28;20032;-63
2023/06/08 00:36:31;;;;;;;23.25;13.38;;;;;;;;;;5036594;28;20035;-62
2023/06/08 00:38:57;;;;;;;23.27;13.68;;;;;;;;;;5036422;28;20073;-62
2023/06/08 00:41:23;;;;;;;27.05;12.98;;;;;;;;;;5036819;28;20436;-63
2023/06/08 00:43:49;;;;;;;21.58;13.10;;;;;;;;;;5036587;28;20501;-63
2023/06/08 00:46:16;;;;;;;21.48;11.82;;;;;;;;;;5037076;28;20048;-63
2023/06/08 00:48:43;;;;;;;27.10;13.43;;;;;;;;;;5053553;28;20021;-63
2023/06/08 00:51:09;;;;;;;23.40;13.15;;;;;;;;;;5059058;22;20064;-58
2023/06/08 00:53:36;;;;;;;22.42;12.35;;;;;;;;;;5028114;28;20042;-57
2023/06/08 00:56:03;;;;;;;22.00;13.05;;;;;;;;;;5027453;28;20037;-60
2023/06/08 00:58:29;;;;;;;23.23;13.15;;;;;;;;;;5026333;28;20117;-56
2023/06/08 01:00:59;;;;;;;23.40;13.10;;;;;;;;;;5028054;28;20026;-55
2023/06/08 01:03:33;;;;;;;26.67;13.90;;;;;;;;;;5011022;28;20397;-58
2023/06/08 01:06:00;;;;;;;24.35;12.93;;;;;;;;;;4992762;28;20536;-58
2023/06/08 01:08:31;;;;;;;28.17;13.87;;;;;;;;;;5008425;28;20435;-59
2023/06/08 01:11:15;;;;;;;23.10;13.13;;;;;;;;;;5008168;28;20129;-59
2023/06/08 01:13:46;;;;;;;24.23;13.80;;;;;;;;;;5008160;28;20030;-57
2023/06/08 01:16:14;;;;;;;26.63;13.25;;;;;;;;;;5007820;28;20077;-59
2023/06/08 01:18:41;;;;;;;24.35;13.85;;;;;;;;;;4993034;28;20034;-59
2023/06/08 01:21:24;;;;;;;25.15;13.57;;;;;;;;;;5007995;28;20495;-59
2023/06/08 01:24:12;;;;;;;20.83;12.35;;;;;;;;;;4992674;28;20041;-60
2023/06/08 01:26:42;;;;;;;25.35;12.98;;;;;;;;;;5008201;28;20498;-55
2023/06/08 01:29:09;;;;;;;23.52;13.70;;;;;;;;;;5008018;28;20034;-58
2023/06/08 01:31:36;;;;;;;26.02;14.32;;;;;;;;;;5007940;28;20121;-57
2023/06/08 01:34:02;;;;;;;22.67;13.50;;;;;;;;;;4992252;28;20030;-57
2023/06/08 01:36:48;;;;;;;23.30;13.82;;;;;;;;;;4992554;28;20030;-60
2023/06/08 01:39:27;;;;;;;23.80;13.52;;;;;;;;;;5007423;28;20026;-59
2023/06/08 01:41:54;;;;;;;;;;;;;;;;;;4993031;28;20030;-59
2023/06/08 01:44:21;;;;;;;27.67;13.50;;;;;;;;;;5006942;28;19996;-58
2023/06/08 01:46:51;;;;;;;25.35;14.05;;;;;;;;;;5007801;28;20483;-54
2023/06/08 01:49:17;;;;;;;27.45;13.55;;;;;;;;;;4992839;28;20034;-58
2023/06/08 01:51:44;;;;;;;29.88;14.55;;;;;;;;;;5007633;28;20038;-52
2023/06/08 01:54:10;;;;;;;21.85;12.73;;;;;;;;;;5007411;28;20121;-55
2023/06/08 01:56:36;;;;;;;23.23;13.35;;;;;;;;;;5007697;28;20518;-59
2023/06/08 01:59:03;;;;;;;23.05;13.68;;;;;;;;;;4992559;28;20023;-56
2023/06/08 02:01:29;;;;;;;27.00;13.55;;;;;;;;;;5007587;28;20026;-57
2023/06/08 02:03:55;;;;;;;35.10;14.70;;;;;;;;;;4991728;28;20390;-59
2023/06/08 02:06:21;;;;;;;24.10;13.20;;;;;;;;;;5007024;28;20038;-56
2023/06/08 02:08:47;;;;;;;24.77;13.48;;;;;;;;;;5007573;28;20023;-58
2023/06/08 02:11:13;;;;;;;23.95;13.02;;;;;;;;;;4992263;28;20268;-58
2023/06/08 02:13:43;;;;;;;24.20;13.52;;;;;;;;;;5007612;28;20034;-55
2023/06/08 02:16:09;;;;;;;24.17;12.95;;;;;;;;;;4991710;28;20026;-53
2023/06/08 02:18:40;;;;;;;23.42;13.20;;;;;;;;;;4992652;28;20023;-54
2023/06/08 02:21:06;;;;;;;28.75;14.27;;;;;;;;;;4992298;28;20030;-57
2023/06/08 02:23:32;;;;;;;23.60;13.55;;;;;;;;;;4992307;28;20490;-55
2023/06/08 02:25:58;;;;;;;26.38;14.18;;;;;;;;;;5006492;28;20121;-59
2023/06/08 02:28:24;;;;;;;23.38;13.60;;;;;;;;;;4992104;28;20486;-58
2023/06/08 02:30:50;;;;;;;22.90;13.90;;;;;;;;;;5007220;28;20402;-55
2023/06/08 02:33:17;;;;;;;24.00;13.20;;;;;;;;;;5007148;28;20050;-57
2023/06/08 02:35:43;;;;;;;24.48;14.10;;;;;;;;;;5006533;28;20045;-56
2023/06/08 02:38:09;;;;;;;25.17;13.50;;;;;;;;;;5007143;28;20026;-56
2023/06/08 02:40:35;;;;;;;28.55;15.20;;;;;;;;;;4992023;28;20104;-57
2023/06/08 02:43:01;;;;;;;26.35;14.07;;;;;;;;;;5007221;28;20065;-58
2023/06/08 02:45:27;;;;;;;28.92;14.90;;;;;;;;;;5006651;28;20014;-54
2023/06/08 02:47:53;;;;;;;26.65;13.57;;;;;;;;;;4992193;28;20030;-55
2023/06/08 02:50:19;;;;;;;21.98;12.93;;;;;;;;;;4993338;28;20414;-55
2023/06/08 02:52:45;;;;;;;24.50;13.55;;;;;;;;;;5010582;28;20031;-60
2023/06/08 02:55:11;;;;;;;30.08;13.32;;;;;;;;;;5010176;28;20030;-58
2023/06/08 02:57:38;;;;;;;24.00;13.98;;;;;;;;;;4996070;28;20031;-56
2023/06/08 03:00:07;;;;;;;27.48;14.43;;;;;;;;;;4995748;28;20026;-57
2023/06/08 03:02:33;;;;;;;;;;;;;;;;;;5011311;28;20117;-58
2023/06/08 03:05:03;;;;;;;23.25;12.93;;;;;;;;;;5010079;28;20357;-55
2023/06/08 03:07:29;;;;;;;25.48;13.20;;;;;;;;;;5010801;28;20022;-54
2023/06/08 03:09:55;;;;;;;25.38;14.05;;;;;;;;;;5010623;28;20026;-56
2023/06/08 03:12:21;;;;;;;26.48;14.15;;;;;;;;;;4995195;28;20508;-58
2023/06/08 03:14:48;;;;;;;24.73;13.88;;;;;;;;;;4994650;28;20340;-57
2023/06/08 03:17:17;;;;;;;23.65;14.02;;;;;;;;;;4995459;28;20027;-59
2023/06/08 03:19:43;;;;;;;27.48;13.73;;;;;;;;;;4995450;28;20027;-57
2023/06/08 03:22:09;;;;;;;29.27;14.52;;;;;;;;;;5010748;28;20191;-57
2023/06/08 03:24:36;;;;;;;27.08;14.45;;;;;;;;;;4994484;28;20065;-56
2023/06/08 03:27:03;;;;;;;27.70;13.80;;;;;;;;;;4995509;28;20556;-55
2023/06/08 03:29:29;;;;;;;26.92;14.13;;;;;;;;;;4995484;28;20032;-59
2023/06/08 03:31:56;;;;;;;24.83;13.77;;;;;;;;;;5010264;28;20185;-53
2023/06/08 03:34:25;;;;;;;27.30;14.38;;;;;;;;;;5009056;28;20399;-57
2023/06/08 03:36:52;;;;;;;30.77;16.40;;;;;;;;;;5009473;28;20034;-53
2023/06/08 03:39:18;;;;;;;27.00;14.07;;;;;;;;;;5009788;28;20068;-53
2023/06/08 03:41:44;;;;;;;28.27;13.40;;;;;;;;;;5009718;28;20027;-56
2023/06/08 03:44:10;;;;;;;26.90;14.40;;;;;;;;;;5009149;28;20023;-53
2023/06/08 03:46:36;;;;;;;26.27;13.45;;;;;;;;;;5009995;28;20104;-57
2023/06/08 03:49:02;;;;;;;26.52;13.75;;;;;;;;;;4994652;28;20034;-57
2023/06/08 03:51:28;;;;;;;30.85;15.90;;;;;;;;;;4994568;28;20041;-57
2023/06/08 03:53:54;;;;;;;25.15;13.57;;;;;;;;;;4994290;28;20030;-56
2023/06/08 03:56:20;;;;;;;27.65;14.38;;;;;;;;;;5009439;28;20407;-55
2023/06/08 03:58:46;;;;;;;29.35;14.30;;;;;;;;;;5009654;28;20022;-53
2023/06/08 04:01:13;;;;;;;25.77;14.88;;;;;;;;;;5009048;28;20057;-58
2023/06/08 04:03:39;;;;;;;30.27;13.85;;;;;;;;;;5009647;28;20433;-56
2023/06/08 04:06:08;;;;;;;32.60;15.75;;;;;;;;;;5008862;28;20031;-56
2023/06/08 04:08:34;;;;;;;28.65;15.00;;;;;;;;;;5009835;28;20569;-57
2023/06/08 04:11:00;;;;;;;27.15;15.48;;;;;;;;;;4994529;28;20026;-61
2023/06/08 04:13:27;;;;;;;33.63;15.27;;;;;;;;;;4994313;28;20033;-57
2023/06/08 04:15:53;;;;;;;27.52;14.70;;;;;;;;;;5008534;28;20517;-59
2023/06/08 04:18:19;;;;;;;28.20;14.95;;;;;;;;;;5009465;28;20069;-57
2023/06/08 04:20:45;;;;;;;25.88;15.05;;;;;;;;;;5009486;28;20130;-57
2023/06/08 04:23:11;;;;;;;26.88;13.82;;;;;;;;;;5009452;28;20109;-56
2023/06/08 04:25:37;;;;;;;31.92;15.85;;;;;;;;;;5008741;28;20053;-57
2023/06/08 04:28:04;;;;;;;28.80;14.82;;;;;;;;;;5009335;28;20128;-57
2023/06/08 04:30:30;;;;;;;26.88;14.48;;;;;;;;;;5009058;28;20066;-59
2023/06/08 04:32:57;;;;;;;26.23;15.88;;;;;;;;;;5009044;28;20038;-60
2023/06/08 04:35:23;;;;;;;30.67;15.48;;;;;;;;;;5008252;28;20049;-56
2023/06/08 04:37:49;;;;;;;30.40;15.88;;;;;;;;;;5009095;28;20032;-55
2023/06/08 04:40:16;;;;;;;28.42;15.82;;;;;;;;;;5008993;28;20104;-57
2023/06/08 04:42:44;;;;;;;29.73;15.65;;;;;;;;;;5008893;28;20026;-54
2023/06/08 04:45:11;;;;;;;24.95;14.43;;;;;;;;;;4993321;28;20022;-58
2023/06/08 04:47:37;;;;;;;33.38;14.57;;;;;;;;;;5009204;28;20465;-54
2023/06/08 04:50:05;;;;;;;26.75;15.18;;;;;;;;;;5008969;28;20141;-55
2023/06/08 04:52:40;;;;;;;27.52;14.60;;;;;;;;;;5008657;28;20038;-53
2023/06/08 04:55:13;;;;;;;29.75;16.40;;;;;;;;;;4992652;28;20406;-59
2023/06/08 04:57:40;;;;;;;27.20;15.02;;;;;;;;;;5008311;28;20048;-55
2023/06/08 05:00:09;;;;;;;29.58;16.88;;;;;;;;;;5008748;28;20026;-53
2023/06/08 05:02:35;;;;;;;28.05;15.88;;;;;;;;;;5008592;28;20022;-55
2023/06/08 05:05:02;;;;;;;26.40;16.23;;;;;;;;;;4992947;28;20166;-58
2023/06/08 05:07:28;;;;;;;24.20;14.23;;;;;;;;;;5008741;28;20487;-57
2023/06/08 05:09:55;;;;;;;30.10;16.50;;;;;;;;;;5009244;28;20033;-57
2023/06/08 05:12:21;;;;;;;28.65;16.75;;;;;;;;;;5008263;28;20161;-55
2023/06/08 05:14:47;;;;;;;27.77;16.35;;;;;;;;;;5007151;28;20310;-53
2023/06/08 05:17:13;;;;;;;26.40;16.02;;;;;;;;;;5008269;28;20064;-58
2023/06/08 05:19:39;;;;;;;26.70;15.30;;;;;;;;;;5008209;28;20122;-57
2023/06/08 05:22:05;;;;;;;28.45;15.45;;;;;;;;;;5007802;28;20065;-59
2023/06/08 05:24:31;;;;;;;33.05;16.40;;;;;;;;;;5007426;28;20438;-59
2023/06/08 05:26:57;;;;;;;32.30;16.73;;;;;;;;;;5008211;28;20589;-56
2023/06/08 05:29:23;;;;;;;29.25;16.67;;;;;;;;;;4993136;28;20117;-52
2023/06/08 05:31:49;;;;;;;26.05;15.52;;;;;;;;;;4992360;28;20399;-58
2023/06/08 05:34:15;;;;;;;30.90;16.58;;;;;;;;;;4990722;28;20026;-58
2023/06/08 05:36:41;;;;;;;24.75;16.08;;;;;;;;;;4991898;28;20022;-52
2023/06/08 05:39:07;;;;;;;26.38;16.30;;;;;;;;;;4994197;28;20027;-53
2023/06/08 05:41:33;;;;;;;27.75;17.02;;;;;;;;;;4992680;28;20029;-58
2023/06/08 05:43:59;;;;;;;24.27;16.83;;;;;;;;;;4991024;28;20446;-55
2023/06/08 05:46:26;;;;;;;29.67;17.27;;;;;;;;;;4992109;28;20057;-55
2023/06/08 05:48:52;;;;;;;30.35;16.83;;;;;;;;;;4991273;28;20030;-57
2023/06/08 05:51:18;;;;;;;34.55;22.17;;;;;;;;;;4991093;28;20121;-56
2023/06/08 05:53:44;;;;;;;27.77;16.48;;;;;;;;;;4992361;28;20023;-56
2023/06/08 05:56:10;;;;;;;27.42;17.48;;;;;;;;;;4990449;28;20065;-54
2023/06/08 05:58:36;;;;;;;30.95;17.50;;;;;;;;;;4991320;28;20027;-58
2023/06/08 06:01:04;;;;;;;27.42;17.95;;;;;;;;;;4991227;28;20038;-55
2023/06/08 06:03:31;;;;;;;29.23;17.52;;;;;;;;;;4991089;28;20033;-55
2023/06/08 06:05:58;;;;;;;27.90;16.77;;;;;;;;;;4990424;28;20042;-58
2023/06/08 06:08:24;;;;;;;30.02;17.73;;;;;;;;;;4992448;28;20057;-59
2023/06/08 06:10:50;;;;;;;26.02;16.65;;;;;;;;;;4990866;28;20031;-59
2023/06/08 06:13:16;;;;;;;30.70;18.30;;;;;;;;;;4990877;28;20030;-56
2023/06/08 06:15:42;;;;;;;27.13;17.45;;;;;;;;;;4991413;28;20399;-57
2023/06/08 06:18:08;;;;;;;28.77;17.85;;;;;;;;;;4990853;28;20022;-59
2023/06/08 06:20:34;;;;;;;34.40;17.98;;;;;;;;;;4991908;28;20442;-54
2023/06/08 06:23:00;;;;;;;27.08;17.17;;;;;;;;;;4990768;28;20088;-58
2023/06/08 06:25:26;;;;;;;28.23;18.23;;;;;;;;;;4993356;28;20085;-58
2023/06/08 06:27:52;;;;;;;28.10;17.65;;;;;;;;;;4994707;28;20037;-58
2023/06/08 06:30:18;;;;;;;28.98;17.90;;;;;;;;;;4994932;28;20066;-58
2023/06/08 06:32:44;;;;;;;26.77;18.30;;;;;;;;;;4996014;28;20022;-58
2023/06/08 06:35:10;;;;;;;30.65;17.83;;;;;;;;;;4995146;28;20395;-57
2023/06/08 06:37:37;;;;;;;28.33;18.20;;;;;;;;;;4994622;28;20025;-60
2023/06/08 06:40:04;;;;;;;30.20;18.25;;;;;;;;;;4994563;28;20544;-59
2023/06/08 06:42:30;;;;;;;27.35;18.98;;;;;;;;;;4994835;28;20060;-55
2023/06/08 06:44:58;;;;;;;31.98;20.42;;;;;;;;;;4995288;28;20445;-57
2023/06/08 06:47:24;;;;;;;30.10;17.60;;;;;;;;;;4994488;28;20050;-58
2023/06/08 06:49:50;;;;;;;32.75;21.52;;;;;;;;;;4994569;28;20156;-55
2023/06/08 06:52:16;;;;;;;28.85;18.60;;;;;;;;;;5031793;23;20041;-61
2023/06/08 06:54:42;;;;;;;28.50;17.75;;;;;;;;;;5035410;28;20030;-60
2023/06/08 06:57:08;;;;;;;29.45;18.20;;;;;;;;;;5036061;28;20022;-59
2023/06/08 06:59:34;;;;;;;33.35;19.40;;;;;;;;;;5045268;28;20024;-60
2023/06/08 07:02:02;;;;;;;30.02;18.63;;;;;;;;;;5041681;28;20440;-62
2023/06/08 07:04:28;;;;;;;27.95;18.25;;;;;;;;;;5028253;28;20021;-62
2023/06/08 07:06:56;;;;;;;27.77;19.33;;;;;;;;;;5037326;28;20029;-63
2023/06/08 07:09:23;;;;;;;29.13;19.23;;;;;;;;;;5036208;28;20088;-60
2023/06/08 07:11:49;;;;;;;30.85;20.00;;;;;;;;;;5035267;28;20149;-60
2023/06/08 07:14:16;;;;;;;26.30;18.48;;;;;;;;;;5026861;28;20054;-60
2023/06/08 07:16:42;;;;;;;31.05;19.80;;;;;;;;;;5033649;28;20441;-60
2023/06/08 07:19:08;;;;;;;30.73;19.55;;;;;;;;;;5035658;28;20369;-62
2023/06/08 07:21:38;;;;;;;26.10;18.38;;;;;;;;;;5034761;28;20112;-62
2023/06/08 07:24:04;;;;;;;29.70;18.80;;;;;;;;;;5033052;28;20026;-62
2023/06/08 07:26:30;;;;;;;27.55;19.58;;;;;;;;;;5034782;28;20026;-61
2023/06/08 07:28:57;;;;;;;29.13;19.85;;;;;;;;;;5027136;28;20092;-62
2023/06/08 07:31:23;;;;;;;31.02;21.50;;;;;;;;;;5014917;28;20374;-61
2023/06/08 07:33:50;;;;;;;31.35;20.58;;;;;;;;;;5016527;28;20082;-61
2023/06/08 07:36:16;;;;;;;31.85;21.42;;;;;;;;;;5023694;28;20030;-60
2023/06/08 07:38:42;;;;;;;29.30;20.45;;;;;;;;;;5034755;28;20026;-61
2023/06/08 07:41:08;;;;;;;28.77;20.58;;;;;;;;;;5034466;28;20018;-61
2023/06/08 07:43:35;;;;;;;27.65;20.15;;;;;;;;;;5033012;28;20071;-56
2023/06/08 07:46:01;;;;;;;31.48;20.05;;;;;;;;;;5030872;28;20029;-52
2023/06/08 07:48:27;;;;;;;30.73;19.65;;;;;;;;;;5031585;28;20055;-52
2023/06/08 07:50:53;;;;;;;29.00;20.08;;;;;;;;;;5031399;28;20086;-54
2023/06/08 07:53:21;;;;;;;35.22;21.80;;;;;;;;;;5032556;28;20088;-56
2023/06/08 07:55:50;;;;;;;30.60;19.55;;;;;;;;;;5030391;28;20029;-53
2023/06/08 07:58:16;;;;;;;30.83;20.90;;;;;;;;;;5032743;28;20375;-53
2023/06/08 08:00:42;;;;;;;31.85;20.77;;;;;;;;;;5032519;28;20022;-56
2023/06/08 08:03:08;;;;;;;30.92;20.30;;;;;;;;;;5031084;28;20036;-51
2023/06/08 08:05:34;;;;;;;33.00;21.20;;;;;;;;;;5031374;28;20025;-54
2023/06/08 08:08:00;;;;;;;34.00;22.65;;;;;;;;;;5031108;28;20345;-55
2023/06/08 08:10:26;;;;;;;31.90;20.77;;;;;;;;;;5032431;28;20095;-54
2023/06/08 08:12:52;;;;;;;36.35;20.80;;;;;;;;;;5032916;28;20025;-53
2023/06/08 08:15:18;;;;;;;28.33;20.23;;;;;;;;;;5030121;28;20112;-53
2023/06/08 08:17:44;;;;;;;29.85;21.83;;;;;;;;;;5031131;28;20113;-56
2023/06/08 08:20:10;;;;;;;29.83;20.92;;;;;;;;;;5030789;28;20044;-54
2023/06/08 08:22:36;;;;;;;30.60;21.67;;;;;;;;;;5030504;28;20048;-56
2023/06/08 08:25:02;;;;;;;29.65;20.27;;;;;;;;;;5029968;28;20021;-54
2023/06/08 08:27:29;;;;;;;28.63;20.48;;;;;;;;;;5032035;28;20462;-55
2023/06/08 08:29:55;;;;;;;30.83;20.60;;;;;;;;;;5021483;28;20117;-51
2023/06/08 08:32:21;;;;;;;28.77;21.20;;;;;;;;;;5010546;28;20030;-54
2023/06/08 08:34:47;;;;;;;27.35;20.92;;;;;;;;;;5010929;28;20025;-55
2023/06/08 08:37:13;;;;;;;31.83;22.33;;;;;;;;;;5013145;28;20091;-56
2023/06/08 08:39:39;;;;;;;31.90;21.75;;;;;;;;;;5017033;28;20069;-53
2023/06/08 08:42:07;;;;;;;34.03;24.70;;;;;;;;;;5018164;28;20115;-55
2023/06/08 08:44:33;;;;;;;35.95;30.55;;;;;;;;;;5010425;28;20025;-55
2023/06/08 08:47:02;;;;;;;28.92;21.02;;;;;;;;;;5011040;28;20034;-56
2023/06/08 08:49:28;;;;;;;;;;;;;;;;;;5009837;28;20029;-54
2023/06/08 08:51:54;;;;;;;27.40;19.80;;;;;;;;;;5009943;28;19910;-56
2023/06/08 08:54:31;;;;;;;29.92;21.63;;;;;;;;;;5010621;28;20026;-51
2023/06/08 08:56:57;;;;;;;29.08;21.88;;;;;;;;;;5008110;28;20112;-52
2023/06/08 08:59:24;;;;;;;28.55;20.38;;;;;;;;;;5010173;28;20030;-57
2023/06/08 09:01:50;;;;;;;29.75;22.15;;;;;;;;;;5010400;28;20029;-53
2023/06/08 09:04:16;;;;;;;30.80;22.63;;;;;;;;;;5009690;28;20088;-56
2023/06/08 09:06:48;;;;;;;30.25;20.27;;;;;;;;;;5010514;28;20053;-56
2023/06/08 09:09:14;;;;;;;30.77;22.33;;;;;;;;;;5010332;28;20514;-57
2023/06/08 09:12:03;;;;;;;29.95;21.20;;;;;;;;;;5011698;28;20080;-56
2023/06/08 09:14:29;;;;;;;30.58;22.10;;;;;;;;;;5009822;28;20463;-54
2023/06/08 09:16:58;;;;;;;29.73;20.80;;;;;;;;;;5010031;28;20080;-55
2023/06/08 09:19:25;;;;;;;30.73;21.80;;;;;;;;;;5010115;28;20018;-54
2023/06/08 09:21:51;;;;;;;30.17;22.20;;;;;;;;;;5009837;28;20026;-54
2023/06/08 09:24:19;;;;;;;30.38;22.77;;;;;;;;;;5009572;28;20032;-56
2023/06/08 09:26:46;;;;;;;30.27;22.60;;;;;;;;;;5010025;28;20548;-58
2023/06/08 09:29:13;;;;;;;32.40;21.85;;;;;;;;;;5006176;28;20030;-51
2023/06/08 09:31:49;;;;;;;34.70;23.90;;;;;;;;;;4989755;28;20446;-54
2023/06/08 09:34:16;;;;;;;27.08;21.10;;;;;;;;;;4989382;28;20061;-57
2023/06/08 09:36:43;;;;;;;26.45;21.52;;;;;;;;;;4990118;28;20030;-56
2023/06/08 09:39:10;;;;;;;30.95;22.45;;;;;;;;;;4990061;28;20057;-57
2023/06/08 09:41:37;;;;;;;29.63;20.85;;;;;;;;;;4989812;28;20018;-57
2023/06/08 09:44:16;;;;;;;28.45;21.45;;;;;;;;;;4989470;28;20029;-55
2023/06/08 09:46:45;;;;;;;32.40;21.75;;;;;;;;;;4991902;28;20026;-56
2023/06/08 09:49:13;;;;;;;28.55;21.63;;;;;;;;;;4989286;28;20416;-59
2023/06/08 09:51:41;;;;;;;29.27;21.23;;;;;;;;;;4988482;28;20034;-59
2023/06/08 09:54:07;;;;;;;;;;;;;;;;;;4990802;28;20045;-59
2023/06/08 09:56:33;;;;;;;28.25;20.75;;;;;;;;;;4989432;28;20290;-57
2023/06/08 09:59:07;;;;;;;27.60;20.40;;;;;;;;;;4989716;28;20023;-61
2023/06/08 10:01:41;;;;;;;36.58;21.60;;;;;;;;;;4991094;28;20030;-61
2023/06/08 10:04:23;;;;;;;27.67;21.95;;;;;;;;;;4987639;28;20284;-59
2023/06/08 10:06:57;;;;;;;27.67;19.60;;;;;;;;;;4991377;28;20054;-59
2023/06/08 10:09:30;;;;;;;27.05;20.30;;;;;;;;;;4991065;28;20026;-59
2023/06/08 10:11:56;;;;;;;29.73;20.48;;;;;;;;;;4989570;28;20038;-61
2023/06/08 10:14:25;;;;;;;26.83;20.02;;;;;;;;;;4990270;28;20456;-59
2023/06/08 10:16:51;;;;;;;24.90;20.10;;;;;;;;;;4990697;28;20087;-60
2023/06/08 10:19:18;;;;;;;26.85;19.05;;;;;;;;;;4991054;28;20140;-59
2023/06/08 10:21:45;;;;;;;25.73;20.02;;;;;;;;;;4991020;28;20030;-60
2023/06/08 10:24:11;;;;;;;26.30;19.58;;;;;;;;;;4988902;28;20058;-59
2023/06/08 10:26:37;;;;;;;28.35;20.58;;;;;;;;;;4989692;28;20034;-59
2023/06/08 10:29:06;;;;;;;24.90;19.45;;;;;;;;;;4989615;28;20026;-59
2023/06/08 10:31:33;;;;;;;29.10;20.13;;;;;;;;;;4989935;28;20464;-61
2023/06/08 10:33:59;;;;;;;23.75;19.23;;;;;;;;;;4990156;28;20399;-59
2023/06/08 10:36:36;;;;;;;23.45;18.77;;;;;;;;;;4989107;28;20085;-57
2023/06/08 10:39:06;;;;;;;25.25;19.13;;;;;;;;;;4989547;28;20024;-59
2023/06/08 10:41:43;;;;;;;28.67;18.90;;;;;;;;;;4990820;28;20033;-61
2023/06/08 10:44:24;;;;;;;24.80;18.90;;;;;;;;;;4989065;28;20062;-59
2023/06/08 10:46:55;;;;;;;24.23;19.65;;;;;;;;;;4990779;28;20042;-59
2023/06/08 10:49:21;;;;;;;27.48;19.70;;;;;;;;;;4989542;28;20081;-59
2023/06/08 10:51:53;;;;;;;24.75;19.13;;;;;;;;;;4989437;28;20031;-60
2023/06/08 10:54:23;;;;;;;25.00;19.40;;;;;;;;;;4990166;28;20046;-59
2023/06/08 10:56:53;;;;;;;24.50;18.75;;;;;;;;;;4995497;28;20030;-61
2023/06/08 10:59:37;;;;;;;29.52;18.42;;;;;;;;;;4995121;28;20034;-56
2023/06/08 11:02:05;;;;;;;26.70;19.25;;;;;;;;;;4989938;28;20014;-59
2023/06/08 11:04:32;;;;;;;24.53;20.10;;;;;;;;;;4989238;28;20096;-59
2023/06/08 11:06:58;;;;;;;21.73;17.85;;;;;;;;;;4989303;28;20054;-61
2023/06/08 11:09:25;;;;;;;24.98;18.75;;;;;;;;;;4989511;28;20079;-59
2023/06/08 11:11:51;;;;;;;24.10;18.23;;;;;;;;;;4991411;28;20042;-60
2023/06/08 11:14:21;;;;;;;23.10;18.40;;;;;;;;;;4993756;28;20026;-59
2023/06/08 11:16:51;;;;;;;23.55;17.23;;;;;;;;;;4993104;28;20117;-59
2023/06/08 11:19:18;;;;;;;23.02;17.85;;;;;;;;;;4993255;28;20022;-57
2023/06/08 11:21:44;;;;;;;22.77;18.73;;;;;;;;;;4993135;28;20023;-61
2023/06/08 11:24:10;;;;;;;22.58;17.52;;;;;;;;;;4993446;28;20065;-60
2023/06/08 11:26:37;;;;;;;24.83;19.52;;;;;;;;;;4993028;28;20168;-61
2023/06/08 11:29:03;;;;;;;21.85;17.48;;;;;;;;;;4992959;28;20033;-57
2023/06/08 11:31:39;;;;;;;21.80;17.70;;;;;;;;;;4992530;28;20169;-58
2023/06/08 11:34:05;;;;;;;22.85;17.58;;;;;;;;;;4992309;28;20026;-58
2023/06/08 11:36:32;;;;;;;22.35;17.75;;;;;;;;;;4992033;28;20391;-57
2023/06/08 11:38:58;;;;;;;23.00;17.25;;;;;;;;;;4992781;28;20069;-60
2023/06/08 11:41:25;;;;;;;22.58;17.13;;;;;;;;;;4993770;28;20067;-57
2023/06/08 11:43:51;;;;;;;23.90;17.20;;;;;;;;;;4992160;28;20030;-62
2023/06/08 11:46:18;;;;;;;21.30;18.08;;;;;;;;;;4991992;28;20129;-61
2023/06/08 11:48:44;;;;;;;23.65;17.73;;;;;;;;;;4992180;28;20113;-61
2023/06/08 11:51:10;;;;;;;23.02;18.45;;;;;;;;;;4993880;28;20026;-60
2023/06/08 11:53:36;;;;;;;20.75;17.40;;;;;;;;;;4993767;28;20109;-61
2023/06/08 11:56:03;;;;;;;20.00;16.50;;;;;;;;;;4991606;28;20023;-60
2023/06/08 11:58:31;;;;;;;20.08;17.42;;;;;;;;;;4992132;28;20034;-58
2023/06/08 12:01:08;;;;;;;20.88;17.17;;;;;;;;;;4991455;28;20118;-60
2023/06/08 12:03:43;;;;;;;23.55;17.98;;;;;;;;;;4990391;28;20026;-60
2023/06/08 12:06:09;;;;;;;22.45;17.33;;;;;;;;;;4992680;28;20058;-60
2023/06/08 12:08:36;;;;;;;22.02;17.83;;;;;;;;;;4991902;28;20034;-60
2023/06/08 12:11:11;;;;;;;20.55;16.52;;;;;;;;;;4993055;28;20046;-60
2023/06/08 12:13:41;;;;;;;19.20;15.82;;;;;;;;;;4993280;28;20032;-61
2023/06/08 12:16:09;;;;;;;19.58;16.70;;;;;;;;;;4990805;28;20030;-60
2023/06/08 12:18:42;;;;;;;20.17;16.83;;;;;;;;;;4992203;28;20026;-59
2023/06/08 12:21:09;;;;;;;18.60;15.50;;;;;;;;;;4991803;28;20125;-59
2023/06/08 12:23:35;;;;;;;20.48;15.85;;;;;;;;;;4992829;28;20050;-61
2023/06/08 12:26:02;;;;;;;18.98;16.88;;;;;;;;;;4992662;28;20018;-58
2023/06/08 12:28:28;;;;;;;19.38;16.85;;;;;;;;;;4992921;28;20616;-60
2023/06/08 12:30:54;;;;;;;21.67;16.52;;;;;;;;;;4992846;28;20034;-57
2023/06/08 12:33:21;;;;;;;19.35;16.15;;;;;;;;;;4992696;28;20031;-59
2023/06/08 12:35:51;;;;;;;18.83;16.20;;;;;;;;;;4990550;28;20491;-60
2023/06/08 12:38:26;;;;;;;20.35;16.27;;;;;;;;;;4991471;28;20122;-58
2023/06/08 12:40:52;;;;;;;18.63;15.40;;;;;;;;;;4992754;28;20061;-60
2023/06/08 12:43:22;;;;;;;55.80;51.03;;;;;;;;;;4992453;28;20101;-59
2023/06/08 12:45:49;;;;;;;26.15;23.63;;;;;;;;;;4990708;28;20052;-60
2023/06/08 12:48:15;;;;;;;20.23;17.20;;;;;;;;;;4992819;28;20105;-61
2023/06/08 12:50:41;;;;;;;19.23;16.88;;;;;;;;;;4991292;28;20073;-59
2023/06/08 12:53:08;;;;;;;19.00;16.23;;;;;;;;;;5034228;22;20585;-62
2023/06/08 12:55:34;;;;;;;23.38;17.73;;;;;;;;;;5047304;28;20064;-61
2023/06/08 12:58:00;;;;;;;22.27;17.55;;;;;;;;;;5048242;28;20030;-62
2023/06/08 13:00:26;;;;;;;21.27;17.88;;;;;;;;;;5032764;28;20454;-62
2023/06/08 13:02:53;;;;;;;21.80;16.77;;;;;;;;;;5047913;28;20059;-61
2023/06/08 13:05:19;;;;;;;18.70;16.50;;;;;;;;;;5029609;28;20037;-62
2023/06/08 13:07:46;;;;;;;22.40;17.30;;;;;;;;;;5031154;28;20021;-62
2023/06/08 13:10:12;;;;;;;19.30;16.67;;;;;;;;;;5031437;28;20027;-62
2023/06/08 13:12:39;;;;;;;20.80;16.83;;;;;;;;;;5032398;28;20018;-62
2023/06/08 13:15:06;;;;;;;20.50;17.35;;;;;;;;;;5030171;28;20025;-61
2023/06/08 13:17:32;;;;;;;21.15;17.55;;;;;;;;;;5032098;28;20032;-61
2023/06/08 13:19:58;;;;;;;21.05;16.63;;;;;;;;;;5032227;28;20021;-61
2023/06/08 13:22:24;;;;;;;20.23;17.95;;;;;;;;;;5030996;28;20022;-62
2023/06/08 13:24:50;;;;;;;20.30;18.10;;;;;;;;;;5030315;28;20013;-62
2023/06/08 13:27:16;;;;;;;20.17;18.05;;;;;;;;;;5032328;28;20029;-62
2023/06/08 13:29:48;;;;;;;23.48;17.92;;;;;;;;;;5030809;28;20112;-62
2023/06/08 13:32:14;;;;;;;19.65;17.65;;;;;;;;;;5032338;28;20029;-62
2023/06/08 13:34:40;;;;;;;23.33;16.83;;;;;;;;;;5029479;28;20112;-61
2023/06/08 13:37:06;;;;;;;20.45;16.88;;;;;;;;;;5030919;28;20168;-62
2023/06/08 13:39:32;;;;;;;20.50;17.85;;;;;;;;;;5031921;28;20129;-61
2023/06/08 13:41:59;;;;;;;18.83;16.87;;;;;;;;;;5032126;28;20033;-61
2023/06/08 13:44:25;;;;;;;20.83;18.08;;;;;;;;;;5031162;28;20080;-61
2023/06/08 13:46:53;;;;;;;20.00;17.83;;;;;;;;;;5030782;28;20053;-62
2023/06/08 13:49:19;;;;;;;19.75;16.90;;;;;;;;;;5030486;28;20040;-62
2023/06/08 13:51:47;;;;;;;19.38;17.02;;;;;;;;;;5034686;28;20025;-62
2023/06/08 13:54:15;;;;;;;20.65;17.27;;;;;;;;;;5029824;28;20033;-63
2023/06/08 13:56:41;;;;;;;18.83;16.80;;;;;;;;;;5031733;28;20434;-62
2023/06/08 13:59:07;;;;;;;20.45;17.33;;;;;;;;;;5030781;28;20113;-62
2023/06/08 14:01:33;;;;;;;20.48;18.10;;;;;;;;;;5030537;28;20057;-62
2023/06/08 14:03:59;;;;;;;20.88;17.70;;;;;;;;;;5028680;28;20033;-61
2023/06/08 14:06:25;;;;;;;20.35;17.75;;;;;;;;;;5030483;28;20028;-62
2023/06/08 14:08:51;;;;;;;20.00;18.00;;;;;;;;;;5030542;28;20117;-62
2023/06/08 14:11:17;;;;;;;24.58;20.50;;;;;;;;;;5030885;28;20112;-62
2023/06/08 14:13:43;;;;;;;19.95;17.85;;;;;;;;;;5031815;28;20034;-62
2023/06/08 14:16:12;;;;;;;20.00;17.77;;;;;;;;;;5029493;28;20052;-62
2023/06/08 14:18:38;;;;;;;20.90;18.65;;;;;;;;;;5030415;28;20025;-62
2023/06/08 14:21:04;;;;;;;21.83;19.52;;;;;;;;;;5030502;28;20393;-61